Time;durP1;ratioP1;P1;durP2;ratioP2;P2;SDS_P1;SDS_P2;PMS_P1;PMS_P2;Temp;Humidity;BMP_temperature;BMP_pressure;BME280_temperature;BME280_humidity;BME280_pressure;Samples;Min_cycle;Max_cycle;Signal;HPM_P1;HPM_P2
2021/07/27 00:01:27;;;;;;;7.53;4.13;;;16.50;85.40;;;;;;5052842;28;20037;-72
2021/07/27 00:03:53;;;;;;;6.38;4.07;;;16.50;85.70;;;;;;5055700;28;20100;-72
2021/07/27 00:06:18;;;;;;;5.47;4.05;;;16.50;85.60;;;;;;5055754;28;20562;-72
2021/07/27 00:08:44;;;;;;;6.40;4.47;;;16.50;85.70;;;;;;5055905;28;20061;-72
2021/07/27 00:11:10;;;;;;;6.32;4.38;;;16.40;85.70;;;;;;5055729;28;20044;-72
2021/07/27 00:13:37;;;;;;;7.22;4.63;;;16.40;85.60;;;;;;5056071;28;20421;-72
2021/07/27 00:16:03;;;;;;;6.25;4.55;;;16.40;85.60;;;;;;5055751;28;20067;-72
2021/07/27 00:18:30;;;;;;;9.82;4.75;;;16.40;85.60;;;;;;5055643;28;20059;-72
2021/07/27 00:20:57;;;;;;;6.72;4.15;;;16.30;86.10;;;;;;5055609;28;20029;-72
2021/07/27 00:23:23;;;;;;;6.45;4.43;;;16.30;86.40;;;;;;5055468;28;20021;-72
2021/07/27 00:25:49;;;;;;;6.47;4.25;;;16.20;86.30;;;;;;5055463;28;20032;-72
2021/07/27 00:28:14;;;;;;;6.68;4.13;;;16.10;86.70;;;;;;5055418;28;20021;-72
2021/07/27 00:30:40;;;;;;;6.40;4.72;;;16.00;86.90;;;;;;5055325;28;20512;-72
2021/07/27 00:33:06;;;;;;;7.25;4.70;;;16.00;86.90;;;;;;5055390;28;20021;-72
2021/07/27 00:35:32;;;;;;;9.68;4.68;;;16.10;87.00;;;;;;5055305;28;20025;-72
2021/07/27 00:38:21;;;;;;;9.90;4.82;;;16.00;87.20;;;;;;5055207;28;20482;-72
2021/07/27 00:40:46;;;;;;;7.40;4.55;;;15.90;87.40;;;;;;5054415;28;20036;-72
2021/07/27 00:43:13;;;;;;;6.28;4.68;;;15.90;87.60;;;;;;5055309;28;20025;-72
2021/07/27 00:45:39;;;;;;;7.07;4.60;;;15.90;87.60;;;;;;5055183;28;20381;-72
2021/07/27 00:48:05;;;;;;;7.03;4.70;;;15.90;87.60;;;;;;5054980;28;20129;-72
2021/07/27 00:50:31;;;;;;;5.82;4.70;;;15.90;87.40;;;;;;5054928;28;20540;-72
2021/07/27 00:52:59;;;;;;;10.02;4.85;;;16.00;87.30;;;;;;5054980;28;20114;-72
2021/07/27 00:55:28;;;;;;;9.90;5.57;;;16.00;87.00;;;;;;5054727;28;20029;-72
2021/07/27 00:57:54;;;;;;;16.38;6.95;;;16.00;87.10;;;;;;5055032;28;20493;-72
2021/07/27 01:00:21;;;;;;;13.48;5.47;;;15.90;87.00;;;;;;5054819;28;20032;-72
2021/07/27 01:02:47;;;;;;;5.70;4.47;;;15.80;87.10;;;;;;5054972;28;20469;-72
2021/07/27 01:05:13;;;;;;;8.63;5.28;;;15.80;86.90;;;;;;5054667;28;20075;-72
2021/07/27 01:07:39;;;;;;;8.27;4.82;;;15.80;87.00;;;;;;5054673;28;20048;-72
2021/07/27 01:10:06;;;;;;;8.50;5.05;;;15.70;87.00;;;;;;5054586;28;20500;-72
2021/07/27 01:12:33;;;;;;;6.65;4.80;;;15.70;87.00;;;;;;5054485;28;20029;-72
2021/07/27 01:14:59;;;;;;;9.98;5.38;;;15.60;87.20;;;;;;5054532;28;20021;-72
2021/07/27 01:17:24;;;;;;;7.30;4.90;;;15.70;87.20;;;;;;5036650;28;20025;-72
2021/07/27 01:43:50;;;;;;;7.57;5.20;;;15.50;87.30;;;;;;5054104;28;20027;-72
2021/07/27 01:46:16;;;;;;;6.97;5.05;;;15.50;87.40;;;;;;5053926;28;20470;-72
2021/07/27 01:48:43;;;;;;;10.90;5.15;;;15.40;87.30;;;;;;5053871;28;20025;-72
2021/07/27 01:51:08;;;;;;;14.40;5.50;;;15.40;87.30;;;;;;5054069;28;20381;-72
2021/07/27 01:53:35;;;;;;;8.07;5.38;;;15.40;87.50;;;;;;5053588;28;20021;-73
2021/07/27 01:56:01;;;;;;;10.85;5.57;;;15.30;87.50;;;;;;5053782;28;20083;-72
2021/07/27 01:58:27;;;;;;;12.32;5.40;;;15.30;87.70;;;;;;5053724;28;20021;-72
2021/07/27 02:00:53;;;;;;;6.25;5.15;;;15.30;87.80;;;;;;5053734;28;20036;-72
2021/07/27 02:03:18;;;;;;;10.13;5.40;;;15.30;87.60;;;;;;5053413;28;20420;-72
2021/07/27 02:05:47;;;;;;;6.88;4.90;;;15.30;88.50;;;;;;5053367;28;20116;-72
2021/07/27 02:08:12;;;;;;;9.50;5.30;;;15.30;87.50;;;;;;5053500;28;20098;-72
2021/07/27 02:10:41;;;;;;;9.45;5.85;;;15.30;87.50;;;;;;5053264;28;20041;-73
2021/07/27 02:13:14;;;;;;;9.25;5.20;;;15.20;87.70;;;;;;5053300;28;20028;-73
2021/07/27 02:15:44;;;;;;;8.70;5.10;;;15.20;87.70;;;;;;5053290;28;20032;-72
2021/07/27 02:18:10;;;;;;;10.18;5.40;;;15.20;87.70;;;;;;5053017;28;20025;-72
2021/07/27 02:20:36;;;;;;;10.95;6.05;;;15.20;87.70;;;;;;5035220;28;20075;-72
2021/07/27 02:23:03;;;;;;;7.55;5.18;;;15.20;87.70;;;;;;5053332;28;20478;-71
2021/07/27 02:25:29;;;;;;;5.97;4.63;;;15.20;87.60;;;;;;5052632;28;20058;-71
2021/07/27 02:27:58;;;;;;;7.50;4.82;;;15.20;87.70;;;;;;5053226;28;20025;-71
2021/07/27 02:30:30;;;;;;;8.77;5.50;;;15.20;87.60;;;;;;5053011;28;20041;-71
2021/07/27 02:32:55;;;;;;;7.03;5.32;;;15.20;87.60;;;;;;5053053;28;20355;-71
2021/07/27 02:35:22;;;;;;;8.85;5.82;;;15.20;87.80;;;;;;5053064;28;20035;-72
2021/07/27 02:37:48;;;;;;;9.10;5.07;;;15.20;87.50;;;;;;5052254;28;20060;-72
2021/07/27 02:40:14;;;;;;;10.60;5.97;;;15.20;87.50;;;;;;5052923;28;20474;-71
2021/07/27 02:42:40;;;;;;;7.72;4.97;;;15.20;87.70;;;;;;5053177;28;20025;-71
2021/07/27 02:45:07;;;;;;;9.07;5.03;;;15.20;87.70;;;;;;5053030;28;20039;-70
2021/07/27 02:47:33;;;;;;;8.05;5.97;;;15.20;87.70;;;;;;5055056;28;20025;-73
2021/07/27 02:49:58;;;;;;;8.98;5.28;;;15.10;87.70;;;;;;5037633;28;20370;-73
2021/07/27 02:52:24;;;;;;;10.35;5.68;;;15.10;87.40;;;;;;5040602;28;20176;-70
2021/07/27 02:54:49;;;;;;;7.85;5.80;;;15.10;87.40;;;;;;5037078;28;20040;-71
2021/07/27 02:57:16;;;;;;;9.63;5.63;;;15.00;87.50;;;;;;5036295;28;20032;-70
2021/07/27 02:59:41;;;;;;;7.53;5.43;;;15.00;87.70;;;;;;5041885;28;20092;-71
2021/07/27 03:02:07;;;;;;;8.70;5.45;;;15.00;88.00;;;;;;5059451;28;20094;-70
2021/07/27 03:04:32;;;;;;;7.70;5.75;;;15.00;87.90;;;;;;5054754;28;20048;-72
2021/07/27 03:06:58;;;;;;;9.27;5.95;;;15.00;87.90;;;;;;5054464;28;20029;-72
2021/07/27 03:09:28;;;;;;;8.93;6.15;;;15.00;87.90;;;;;;5057777;28;20029;-71
2021/07/27 03:11:54;;;;;;;10.35;5.72;;;14.90;88.00;;;;;;5053497;28;20017;-71
2021/07/27 03:14:20;;;;;;;8.35;5.95;;;14.90;88.10;;;;;;5053435;28;20033;-71
2021/07/27 03:16:46;;;;;;;9.68;5.35;;;14.90;88.10;;;;;;5053350;28;20053;-72
2021/07/27 03:19:11;;;;;;;7.78;5.50;;;14.90;88.00;;;;;;5053075;28;20083;-76
2021/07/27 03:21:37;;;;;;;8.13;6.10;;;14.90;88.10;;;;;;5034957;28;20087;-76
2021/07/27 03:24:02;;;;;;;11.15;6.07;;;14.90;88.10;;;;;;5052668;28;20052;-76
2021/07/27 03:26:28;;;;;;;8.68;5.82;;;14.80;88.00;;;;;;5052573;28;20037;-76
2021/07/27 03:28:53;;;;;;;8.43;5.88;;;14.80;87.90;;;;;;5052617;28;20033;-76
2021/07/27 03:31:20;;;;;;;9.80;6.13;;;14.80;88.00;;;;;;5052538;28;20033;-76
2021/07/27 03:33:46;;;;;;;7.88;5.25;;;14.80;88.00;;;;;;5052561;28;20023;-76
2021/07/27 03:36:12;;;;;;;8.02;5.63;;;14.80;88.10;;;;;;5052710;28;20021;-76
2021/07/27 03:38:38;;;;;;;8.63;6.00;;;14.80;88.00;;;;;;5056497;28;20163;-76
2021/07/27 03:41:05;;;;;;;7.85;5.25;;;14.80;87.90;;;;;;5056342;28;20029;-76
2021/07/27 03:43:31;;;;;;;6.97;5.13;;;14.80;87.80;;;;;;5056228;28;20100;-75
2021/07/27 03:45:57;;;;;;;8.65;6.70;;;14.80;87.90;;;;;;5038210;28;20025;-76
2021/07/27 03:48:22;;;;;;;8.43;5.85;;;14.80;87.80;;;;;;5056057;28;20104;-76
2021/07/27 03:50:48;;;;;;;7.28;5.50;;;14.80;87.90;;;;;;5056043;28;20041;-75
2021/07/27 03:53:16;;;;;;;9.80;6.10;;;14.80;88.00;;;;;;5056017;28;20060;-76
2021/07/27 03:55:42;;;;;;;15.90;5.93;;;14.90;88.00;;;;;;5056126;28;20079;-77
2021/07/27 03:58:07;;;;;;;9.80;5.97;;;14.80;87.80;;;;;;5055829;28;20021;-75
2021/07/27 04:00:33;;;;;;;11.70;6.28;;;14.80;87.70;;;;;;5055906;28;20544;-76
2021/07/27 04:03:02;;;;;;;9.18;5.80;;;14.80;87.60;;;;;;5055818;28;20074;-77
2021/07/27 04:05:28;;;;;;;8.50;6.05;;;14.70;87.70;;;;;;5055586;28;20060;-76
2021/07/27 04:07:53;;;;;;;6.70;5.70;;;14.70;88.00;;;;;;5056012;28;20060;-76
2021/07/27 04:10:19;;;;;;;8.77;5.82;;;14.80;87.90;;;;;;5037789;28;20033;-76
2021/07/27 04:12:44;;;;;;;10.05;5.20;;;14.80;87.70;;;;;;5055746;28;20082;-76
2021/07/27 04:15:10;;;;;;;9.15;5.82;;;14.70;88.00;;;;;;5055683;28;20033;-77
2021/07/27 04:17:36;;;;;;;10.85;6.88;;;14.70;88.10;;;;;;5055552;28;20092;-76
2021/07/27 04:20:02;;;;;;;8.13;6.15;;;14.70;88.10;;;;;;5055587;28;20047;-77
2021/07/27 04:22:28;;;;;;;9.20;5.95;;;14.80;87.80;;;;;;5055536;28;20086;-76
2021/07/27 04:24:57;;;;;;;8.18;5.65;;;14.80;87.60;;;;;;5055459;28;20029;-75
2021/07/27 04:27:24;;;;;;;9.57;6.25;;;14.80;87.50;;;;;;5055380;28;20013;-76
2021/07/27 04:29:49;;;;;;;10.98;6.22;;;14.80;87.60;;;;;;5055457;28;20083;-76
2021/07/27 04:32:15;;;;;;;9.77;6.25;;;14.80;87.50;;;;;;5055160;28;20024;-76
2021/07/27 04:34:40;;;;;;;12.02;6.40;;;14.80;87.60;;;;;;5055354;28;20037;-72
2021/07/27 04:37:06;;;;;;;8.40;6.18;;;14.80;87.60;;;;;;5055329;28;20033;-73
2021/07/27 04:39:31;;;;;;;8.73;5.95;;;14.80;87.30;;;;;;5055365;28;20021;-71
2021/07/27 04:41:57;;;;;;;8.88;5.57;;;14.90;87.00;;;;;;5055298;28;20027;-72
2021/07/27 04:44:23;;;;;;;13.98;6.30;;;14.90;87.10;;;;;;5055209;28;20412;-72
2021/07/27 04:46:48;;;;;;;10.68;6.32;;;14.90;87.00;;;;;;5055116;28;20448;-72
2021/07/27 04:49:14;;;;;;;9.63;6.30;;;14.90;87.10;;;;;;5055491;28;20039;-73
2021/07/27 04:51:40;;;;;;;10.57;5.82;;;15.00;86.90;;;;;;5056372;28;20082;-72
2021/07/27 04:54:08;;;;;;;10.15;6.18;;;15.00;86.70;;;;;;5056747;28;20424;-72
2021/07/27 04:56:34;;;;;;;12.32;6.15;;;15.10;86.50;;;;;;5056545;28;20377;-72
2021/07/27 04:59:00;;;;;;;10.15;6.18;;;15.10;86.60;;;;;;5058287;28;20025;-72
2021/07/27 05:01:25;;;;;;;9.80;5.97;;;15.20;86.40;;;;;;5058930;28;20068;-72
2021/07/27 05:03:51;;;;;;;9.27;5.97;;;15.20;86.00;;;;;;5069474;28;20033;-72
2021/07/27 05:06:23;;;;;;;8.95;6.25;;;15.20;86.10;;;;;;5072725;28;20064;-72
2021/07/27 05:08:49;;;;;;;9.43;6.05;;;15.30;85.90;;;;;;5055077;28;20505;-72
2021/07/27 05:11:14;;;;;;;11.40;6.75;;;15.40;85.70;;;;;;5049853;28;20033;-72
2021/07/27 05:13:40;;;;;;;9.23;5.97;;;15.40;85.50;;;;;;5040252;28;20033;-72
2021/07/27 05:16:14;;;;;;;8.77;6.25;;;15.50;84.90;;;;;;5063656;28;20029;-72
2021/07/27 05:18:39;;;;;;;8.98;6.20;;;15.50;84.90;;;;;;5059893;28;20025;-72
2021/07/27 05:21:05;;;;;;;10.50;6.18;;;15.50;85.80;;;;;;5056564;28;20078;-71
2021/07/27 05:23:30;;;;;;;12.48;6.50;;;15.60;84.90;;;;;;5056569;28;20029;-72
2021/07/27 05:25:56;;;;;;;9.30;5.95;;;15.70;84.80;;;;;;5054769;28;20056;-72
2021/07/27 05:28:28;;;;;;;8.10;6.50;;;15.70;84.50;;;;;;5035710;28;20029;-73
2021/07/27 05:30:53;;;;;;;8.30;6.45;;;15.80;84.60;;;;;;5053569;28;20069;-71
2021/07/27 05:33:19;;;;;;;11.05;7.18;;;15.90;84.30;;;;;;5053908;28;20107;-71
2021/07/27 05:35:44;;;;;;;10.73;6.18;;;16.00;83.90;;;;;;5053924;28;20029;-72
2021/07/27 05:38:10;;;;;;;11.75;7.22;;;16.10;83.80;;;;;;5053729;28;20021;-71
2021/07/27 05:40:35;;;;;;;9.55;6.20;;;16.10;83.60;;;;;;5053700;28;20080;-71
2021/07/27 05:43:01;;;;;;;11.43;6.53;;;16.20;83.20;;;;;;5053811;28;20112;-73
2021/07/27 05:45:27;;;;;;;8.75;5.53;;;16.40;83.30;;;;;;5053980;28;20025;-72
2021/07/27 05:47:53;;;;;;;8.48;5.75;;;16.50;82.90;;;;;;5053726;28;20025;-74
2021/07/27 05:50:20;;;;;;;9.52;5.90;;;16.70;82.50;;;;;;5036037;28;20117;-71
2021/07/27 05:52:46;;;;;;;11.50;6.65;;;16.80;81.80;;;;;;5053689;28;20100;-72
2021/07/27 05:55:12;;;;;;;7.32;5.57;;;16.90;81.40;;;;;;5053718;28;20057;-71
2021/07/27 05:57:37;;;;;;;6.43;5.57;;;16.90;81.00;;;;;;5053625;28;20100;-72
2021/07/27 06:00:04;;;;;;;7.35;5.03;;;17.00;81.00;;;;;;5052590;28;20025;-72
2021/07/27 06:02:30;;;;;;;7.85;5.78;;;17.20;80.70;;;;;;5053396;28;20056;-72
2021/07/27 06:04:55;;;;;;;7.57;5.80;;;17.30;80.50;;;;;;5053314;28;20079;-72
2021/07/27 06:07:21;;;;;;;8.50;6.30;;;17.40;80.10;;;;;;5035349;28;20024;-72
2021/07/27 06:09:46;;;;;;;14.00;6.10;;;17.50;80.00;;;;;;5053206;28;20086;-71
2021/07/27 06:12:12;;;;;;;8.00;6.03;;;17.70;79.50;;;;;;5052663;28;20543;-72
2021/07/27 06:14:38;;;;;;;9.55;5.90;;;17.80;79.20;;;;;;5052844;28;20021;-72
2021/07/27 06:17:04;;;;;;;8.55;5.65;;;17.90;79.30;;;;;;5053423;28;20114;-71
2021/07/27 06:19:30;;;;;;;7.18;5.15;;;18.00;79.60;;;;;;5053212;28;20025;-71
2021/07/27 06:21:55;;;;;;;7.63;5.53;;;18.20;78.20;;;;;;5055632;28;20312;-74
2021/07/27 06:24:21;;;;;;;7.55;5.28;;;18.30;78.90;;;;;;5065458;28;20032;-73
2021/07/27 06:26:46;;;;;;;8.13;5.93;;;18.30;77.90;;;;;;5059227;28;20021;-72
2021/07/27 06:29:12;;;;;;;7.90;5.20;;;18.30;78.00;;;;;;5036117;28;20024;-72
2021/07/27 06:31:38;;;;;;;6.22;4.95;;;18.40;78.50;;;;;;5053114;28;20083;-72
2021/07/27 06:34:04;;;;;;;7.93;5.18;;;18.40;78.80;;;;;;5053021;28;20030;-73
2021/07/27 06:36:30;;;;;;;16.23;5.35;;;18.60;79.00;;;;;;5052980;28;20029;-72
2021/07/27 06:38:56;;;;;;;7.25;5.60;;;18.70;78.70;;;;;;5052984;28;20045;-72
2021/07/27 06:41:22;;;;;;;8.02;5.57;;;18.80;77.70;;;;;;5052990;28;20082;-72
2021/07/27 06:43:48;;;;;;;8.23;4.45;;;18.90;77.50;;;;;;5052958;28;20111;-72
2021/07/27 06:46:13;;;;;;;7.32;4.95;;;19.10;77.40;;;;;;5052842;28;20112;-72
2021/07/27 06:48:39;;;;;;;7.47;5.35;;;19.20;77.10;;;;;;5052718;28;20028;-74
2021/07/27 06:51:09;;;;;;;6.07;4.78;;;19.30;76.90;;;;;;5052813;28;20029;-73
2021/07/27 06:53:34;;;;;;;6.22;4.30;;;19.40;76.80;;;;;;5052711;28;20146;-72
2021/07/27 06:56:00;;;;;;;8.95;5.22;;;19.50;76.50;;;;;;5053039;28;20061;-73
2021/07/27 06:58:26;;;;;;;8.20;5.03;;;19.60;76.30;;;;;;5052747;28;20080;-72
2021/07/27 07:00:51;;;;;;;9.25;4.97;;;19.70;76.60;;;;;;5052815;28;20025;-72
2021/07/27 07:03:16;;;;;;;6.80;4.10;;;19.80;76.10;;;;;;5052590;28;20021;-72
2021/07/27 07:05:42;;;;;;;6.75;4.45;;;20.00;75.80;;;;;;5052097;28;20067;-73
2021/07/27 07:08:08;;;;;;;7.78;4.70;;;20.10;74.70;;;;;;5052284;28;20411;-72
2021/07/27 07:10:33;;;;;;;4.78;4.28;;;20.30;74.10;;;;;;5035498;28;20103;-73
2021/07/27 07:12:59;;;;;;;6.97;4.00;;;20.50;72.60;;;;;;5056678;28;20029;-73
2021/07/27 07:15:25;;;;;;;5.22;4.18;;;20.70;70.70;;;;;;5056307;28;20036;-72
2021/07/27 07:17:51;;;;;;;4.93;3.65;;;20.80;68.90;;;;;;5056239;28;20078;-72
2021/07/27 07:20:17;;;;;;;7.00;4.18;;;20.90;68.30;;;;;;5056282;28;20052;-72
2021/07/27 07:22:42;;;;;;;4.60;3.78;;;21.20;66.10;;;;;;5056468;28;20116;-73
2021/07/27 07:25:08;;;;;;;5.70;4.00;;;21.30;65.00;;;;;;5056201;28;20036;-73
2021/07/27 07:27:34;;;;;;;3.58;3.13;;;21.40;64.60;;;;;;5055997;28;20100;-73
2021/07/27 07:30:00;;;;;;;4.90;4.22;;;21.50;64.70;;;;;;5056233;28;20041;-73
2021/07/27 07:32:27;;;;;;;5.43;3.90;;;21.70;64.40;;;;;;5056147;28;20028;-75
2021/07/27 07:34:52;;;;;;;10.20;3.72;;;21.90;64.80;;;;;;5056068;28;20171;-74
2021/07/27 07:37:18;;;;;;;6.97;3.63;;;22.00;65.10;;;;;;5056146;28;20465;-74
2021/07/27 07:39:44;;;;;;;10.43;4.75;;;22.10;65.00;;;;;;5056096;28;20036;-76
2021/07/27 07:42:09;;;;;;;6.05;4.30;;;22.20;64.10;;;;;;5056142;28;20381;-74
2021/07/27 07:44:36;;;;;;;4.78;4.15;;;22.40;64.10;;;;;;5056196;28;20029;-75
2021/07/27 07:47:02;;;;;;;4.30;3.90;;;22.50;63.40;;;;;;5055922;28;20028;-74
2021/07/27 07:49:28;;;;;;;4.25;3.38;;;22.60;61.70;;;;;;5055868;28;20040;-74
2021/07/27 07:51:56;;;;;;;4.05;3.35;;;22.70;60.90;;;;;;5055977;28;20068;-75
2021/07/27 07:54:24;;;;;;;5.38;3.80;;;22.90;60.40;;;;;;5055746;28;20021;-77
2021/07/27 07:56:50;;;;;;;7.63;4.30;;;22.80;59.40;;;;;;5055885;28;20021;-76
2021/07/27 07:59:16;;;;;;;4.55;3.88;;;22.70;57.70;;;;;;5055791;28;20087;-76
2021/07/27 08:01:45;;;;;;;7.25;4.18;;;22.80;59.20;;;;;;5058821;28;20460;-78
2021/07/27 08:04:16;;;;;;;6.15;3.97;;;22.80;58.40;;;;;;5060903;28;20039;-78
2021/07/27 08:06:42;;;;;;;5.43;3.45;;;22.90;58.30;;;;;;5059712;28;20033;-78
2021/07/27 08:09:08;;;;;;;5.65;3.85;;;23.20;57.80;;;;;;5056714;28;20117;-78
2021/07/27 08:11:34;;;;;;;5.18;3.88;;;23.20;57.90;;;;;;5055874;28;20040;-78
2021/07/27 08:14:00;;;;;;;5.22;4.05;;;23.30;58.10;;;;;;5055658;28;20162;-77
2021/07/27 08:16:26;;;;;;;4.93;3.60;;;23.40;58.00;;;;;;5055570;28;20032;-79
2021/07/27 08:18:52;;;;;;;6.63;4.20;;;23.50;58.00;;;;;;5055589;28;20021;-78
2021/07/27 08:21:23;;;;;;;5.60;3.90;;;23.50;56.50;;;;;;5055459;28;20028;-79
2021/07/27 08:23:49;;;;;;;5.82;3.97;;;23.40;54.70;;;;;;5054646;28;20031;-79
2021/07/27 08:26:15;;;;;;;5.75;3.65;;;23.50;56.50;;;;;;5055202;28;20107;-80
2021/07/27 08:28:42;;;;;;;5.88;3.78;;;23.60;56.50;;;;;;5056555;28;20021;-78
2021/07/27 08:31:09;;;;;;;6.90;4.43;;;23.80;55.90;;;;;;5055423;28;20037;-80
2021/07/27 08:33:34;;;;;;;5.00;3.65;;;23.90;54.80;;;;;;5055224;28;20412;-79
2021/07/27 08:36:03;;;;;;;6.18;4.43;;;24.00;54.60;;;;;;5055160;28;20032;-78
2021/07/27 08:38:37;;;;;;;5.90;5.25;;;24.00;54.00;;;;;;5055166;28;20024;-80
2021/07/27 08:41:04;;;;;;;9.07;4.45;;;23.90;55.10;;;;;;5055164;28;20017;-79
2021/07/27 08:43:30;;;;;;;6.88;4.22;;;23.80;52.20;;;;;;5054938;28;20073;-79
2021/07/27 08:45:55;;;;;;;8.05;3.92;;;23.80;52.00;;;;;;5054669;28;20470;-79
2021/07/27 08:48:22;;;;;;;5.13;4.30;;;23.80;51.50;;;;;;5054773;28;20044;-79
2021/07/27 08:50:48;;;;;;;11.25;4.18;;;23.90;52.00;;;;;;5054536;28;20092;-80
2021/07/27 08:53:13;;;;;;;5.13;3.90;;;23.70;51.00;;;;;;5054786;28;20465;-80
2021/07/27 08:55:39;;;;;;;4.53;3.92;;;23.70;51.00;;;;;;5054898;28;20067;-80
2021/07/27 08:58:05;;;;;;;4.57;3.55;;;23.60;52.80;;;;;;5054648;28;20398;-79
2021/07/27 09:00:32;;;;;;;8.57;4.28;;;23.60;53.30;;;;;;5036134;28;20438;-80
2021/07/27 09:03:16;;;;;;;9.05;6.88;;;23.50;52.90;;;;;;5023542;28;20026;-81
2021/07/27 09:05:42;;;;;;;5.55;3.80;;;23.60;53.40;;;;;;5048652;28;20521;-77
2021/07/27 09:08:09;;;;;;;7.35;4.00;;;23.50;53.10;;;;;;5054593;28;20036;-79
2021/07/27 09:10:40;;;;;;;6.65;3.85;;;23.50;52.30;;;;;;5054361;28;20064;-80
2021/07/27 09:13:08;;;;;;;5.68;4.45;;;23.40;52.40;;;;;;5054524;28;20025;-80
2021/07/27 09:15:36;;;;;;;5.38;3.78;;;23.40;54.10;;;;;;5054515;28;20021;-80
2021/07/27 09:18:07;;;;;;;7.65;3.90;;;23.60;54.50;;;;;;5036524;28;20047;-80
2021/07/27 09:20:35;;;;;;;6.88;4.25;;;23.70;52.60;;;;;;5054459;28;20017;-83
2021/07/27 09:23:05;;;;;;;6.63;4.20;;;23.80;52.40;;;;;;5054583;28;20416;-79
2021/07/27 09:25:33;;;;;;;5.70;4.43;;;23.80;52.90;;;;;;5054279;28;20502;-80
2021/07/27 09:28:06;;;;;;;6.60;4.15;;;23.70;51.00;;;;;;5054226;28;20083;-79
2021/07/27 09:30:33;;;;;;;6.22;4.03;;;23.70;51.50;;;;;;5054264;28;20102;-73
2021/07/27 09:32:58;;;;;;;5.35;4.43;;;23.80;50.70;;;;;;5054219;28;20039;-79
2021/07/27 09:35:27;;;;;;;5.32;4.28;;;23.90;51.70;;;;;;5036327;28;20025;-71
2021/07/27 09:38:18;;;;;;;8.35;3.72;;;23.80;52.00;;;;;;5054517;28;20021;-72
2021/07/27 09:41:06;;;;;;;6.22;4.22;;;23.80;50.70;;;;;;5054187;28;20032;-78
2021/07/27 09:43:32;;;;;;;4.93;3.90;;;23.80;51.70;;;;;;5054181;28;20021;-72
2021/07/27 09:46:00;;;;;;;5.20;4.18;;;24.00;52.00;;;;;;5053766;28;20605;-72
2021/07/27 09:48:27;;;;;;;5.40;4.10;;;23.90;52.30;;;;;;5054147;28;20061;-75
2021/07/27 09:50:55;;;;;;;6.15;4.38;;;24.00;51.90;;;;;;5054115;28;20493;-74
2021/07/27 09:53:24;;;;;;;4.47;3.75;;;24.20;52.80;;;;;;5054676;28;20111;-75
2021/07/27 09:55:53;;;;;;;5.15;4.10;;;24.00;50.60;;;;;;5054326;28;20033;-80
2021/07/27 09:58:19;;;;;;;6.20;4.45;;;23.80;51.10;;;;;;5054024;28;20393;-82
2021/07/27 10:00:58;;;;;;;6.10;3.95;;;23.80;52.30;;;;;;5053799;28;20025;-77
2021/07/27 10:03:25;;;;;;;5.85;3.90;;;23.70;51.70;;;;;;5053556;28;20036;-76
2021/07/27 10:05:57;;;;;;;5.50;3.83;;;23.80;52.50;;;;;;5052591;28;20037;-74
2021/07/27 10:08:36;;;;;;;5.82;3.90;;;24.00;52.30;;;;;;5053921;28;20017;-72
2021/07/27 10:11:07;;;;;;;7.45;4.40;;;24.20;50.80;;;;;;5053954;28;20048;-72
2021/07/27 10:13:35;;;;;;;6.60;3.88;;;24.30;49.20;;;;;;5055231;28;20025;-72
2021/07/27 10:16:01;;;;;;;4.97;3.90;;;24.40;49.60;;;;;;5054920;28;20362;-72
2021/07/27 10:18:34;;;;;;;4.07;3.67;;;24.60;49.60;;;;;;5059760;28;20052;-72
2021/07/27 10:21:24;;;;;;;6.28;4.43;;;25.00;49.00;;;;;;5055174;28;20021;-72
2021/07/27 10:23:51;;;;;;;7.03;5.07;;;25.20;48.60;;;;;;5052902;28;20035;-72
2021/07/27 10:26:33;;;;;;;8.35;4.30;;;25.20;47.50;;;;;;5053072;28;20029;-70
2021/07/27 10:28:59;;;;;;;5.13;3.83;;;25.00;47.60;;;;;;5057765;28;20133;-72
2021/07/27 10:31:32;;;;;;;5.07;4.00;;;25.20;47.80;;;;;;5058852;28;20035;-73
2021/07/27 10:34:00;;;;;;;4.28;3.85;;;25.40;47.80;;;;;;5053169;28;20065;-76
2021/07/27 10:36:27;;;;;;;6.05;4.40;;;25.50;47.50;;;;;;5053216;28;20429;-73
2021/07/27 10:39:04;;;;;;;4.32;3.63;;;25.60;46.50;;;;;;5055172;28;20075;-80
2021/07/27 10:41:35;;;;;;;7.05;4.07;;;25.80;45.60;;;;;;5053141;28;20112;-75
2021/07/27 10:44:06;;;;;;;5.82;3.92;;;26.20;46.50;;;;;;5052879;28;20028;-73
2021/07/27 10:46:36;;;;;;;5.28;3.72;;;26.70;45.60;;;;;;5052019;28;20021;-73
2021/07/27 10:49:02;;;;;;;6.68;3.92;;;27.00;44.60;;;;;;5034601;28;20377;-72
2021/07/27 10:51:34;;;;;;;4.00;3.42;;;26.90;40.70;;;;;;5034286;28;20029;-72
2021/07/27 10:54:01;;;;;;;5.45;3.88;;;26.90;41.80;;;;;;5052519;28;20013;-73
2021/07/27 10:56:31;;;;;;;4.53;3.60;;;27.10;43.60;;;;;;5034439;28;20036;-74
2021/07/27 10:59:00;;;;;;;10.23;4.38;;;27.30;43.20;;;;;;5052481;28;20048;-73
2021/07/27 11:01:31;;;;;;;6.80;3.70;;;27.30;42.40;;;;;;5052564;28;20032;-74
2021/07/27 11:04:12;;;;;;;6.22;3.95;;;27.10;40.40;;;;;;5052347;28;20108;-75
2021/07/27 11:06:38;;;;;;;6.25;4.22;;;27.00;40.90;;;;;;5052558;28;20474;-73
2021/07/27 11:09:05;;;;;;;6.32;4.63;;;27.00;42.60;;;;;;5052193;28;20477;-73
2021/07/27 11:11:41;;;;;;;6.07;4.55;;;27.00;41.90;;;;;;5052153;28;20029;-74
2021/07/27 11:14:07;;;;;;;7.07;5.28;;;27.00;42.90;;;;;;5052305;28;20025;-73
2021/07/27 11:16:42;;;;;;;6.90;4.70;;;27.00;41.20;;;;;;5052397;28;20462;-73
2021/07/27 11:19:10;;;;;;;4.32;3.92;;;27.10;42.10;;;;;;5052372;28;20021;-75
2021/07/27 11:21:35;;;;;;;5.55;4.90;;;27.20;41.80;;;;;;5052377;28;20482;-74
2021/07/27 11:24:01;;;;;;;9.55;7.22;;;27.40;42.70;;;;;;5052315;28;20027;-72
2021/07/27 11:26:39;;;;;;;8.13;6.55;;;27.40;41.00;;;;;;5052098;28;20064;-73
2021/07/27 11:29:10;;;;;;;11.20;7.30;;;27.30;40.90;;;;;;5052119;28;20553;-72
2021/07/27 11:31:51;;;;;;;7.68;6.65;;;27.00;41.30;;;;;;5052420;28;20065;-73
2021/07/27 11:34:30;;;;;;;6.68;5.45;;;26.90;41.20;;;;;;5052360;28;20013;-72
2021/07/27 11:36:57;;;;;;;6.78;5.38;;;27.10;44.30;;;;;;5052208;28;20021;-73
2021/07/27 11:39:23;;;;;;;6.22;4.63;;;27.30;41.90;;;;;;5052015;28;20128;-73
2021/07/27 11:42:02;;;;;;;7.28;5.38;;;27.30;41.70;;;;;;5052253;28;20424;-73
2021/07/27 11:44:28;;;;;;;6.32;4.82;;;27.40;43.30;;;;;;5034236;28;20370;-73
2021/07/27 11:46:54;;;;;;;7.55;5.00;;;27.20;42.70;;;;;;5052131;28;20025;-73
2021/07/27 11:49:20;;;;;;;6.32;4.78;;;27.00;41.70;;;;;;5052066;28;20029;-73
2021/07/27 11:51:46;;;;;;;9.13;5.43;;;26.70;42.30;;;;;;5052083;28;20036;-73
2021/07/27 11:54:11;;;;;;;7.53;5.40;;;26.50;42.00;;;;;;5052094;28;20477;-71
2021/07/27 11:56:49;;;;;;;6.95;4.55;;;26.20;43.60;;;;;;5034102;28;20075;-71
2021/07/27 11:59:25;;;;;;;8.15;4.38;;;26.10;44.20;;;;;;5055260;28;20021;-72
2021/07/27 12:01:50;;;;;;;7.95;5.15;;;26.00;44.50;;;;;;5037406;28;20383;-73
2021/07/27 12:04:16;;;;;;;5.22;4.28;;;25.90;43.50;;;;;;5055426;28;20119;-73
2021/07/27 12:06:50;;;;;;;6.90;4.43;;;25.80;44.60;;;;;;5055317;28;20039;-73
2021/07/27 12:09:18;;;;;;;6.25;4.30;;;25.70;45.00;;;;;;5055382;28;20037;-73
2021/07/27 12:11:43;;;;;;;6.70;5.07;;;25.70;45.90;;;;;;5055263;28;20029;-73
2021/07/27 12:14:09;;;;;;;5.93;4.63;;;25.80;46.90;;;;;;5055267;28;20071;-73
2021/07/27 12:16:35;;;;;;;6.38;4.72;;;25.90;46.10;;;;;;5055258;28;20021;-73
2021/07/27 12:19:00;;;;;;;5.10;4.60;;;25.90;45.30;;;;;;5055112;28;20039;-73
2021/07/27 12:21:26;;;;;;;6.38;4.40;;;25.90;45.40;;;;;;5055068;28;20036;-72
2021/07/27 12:23:51;;;;;;;5.68;4.45;;;25.70;45.80;;;;;;5055293;28;20025;-73
2021/07/27 12:26:17;;;;;;;5.57;4.10;;;25.80;45.70;;;;;;5055053;28;20025;-72
2021/07/27 12:28:42;;;;;;;5.20;4.22;;;25.90;46.60;;;;;;5055038;28;20025;-72
2021/07/27 12:31:08;;;;;;;5.40;4.10;;;25.90;45.10;;;;;;5053817;28;20122;-72
2021/07/27 12:33:34;;;;;;;4.30;3.60;;;26.00;44.20;;;;;;5055047;28;20075;-71
2021/07/27 12:36:00;;;;;;;6.32;4.05;;;26.00;44.10;;;;;;5055170;28;20021;-72
2021/07/27 12:38:26;;;;;;;6.30;4.38;;;26.30;44.30;;;;;;5054926;28;20028;-72
2021/07/27 12:40:52;;;;;;;6.90;4.60;;;26.60;42.70;;;;;;5055018;28;20409;-73
2021/07/27 12:43:17;;;;;;;5.97;4.05;;;27.00;41.40;;;;;;5054983;28;20025;-72
2021/07/27 12:45:44;;;;;;;6.82;4.53;;;27.40;39.40;;;;;;5054967;28;20029;-72
2021/07/27 12:48:10;;;;;;;7.05;4.35;;;27.50;38.80;;;;;;5036955;28;20378;-72
2021/07/27 12:50:35;;;;;;;5.85;3.83;;;27.30;38.90;;;;;;5054837;28;20029;-72
2021/07/27 12:53:01;;;;;;;5.38;4.40;;;27.00;39.00;;;;;;5054882;28;20036;-72
2021/07/27 12:55:26;;;;;;;6.15;4.70;;;26.80;39.60;;;;;;5054341;28;20036;-72
2021/07/27 12:57:52;;;;;;;5.38;4.22;;;26.40;40.30;;;;;;5054376;28;20025;-72
2021/07/27 13:00:18;;;;;;;6.93;4.60;;;26.20;39.10;;;;;;5054334;28;20108;-72
2021/07/27 13:02:44;;;;;;;6.00;4.35;;;26.00;39.00;;;;;;5053232;28;20021;-72
2021/07/27 13:05:10;;;;;;;5.30;4.13;;;25.80;40.20;;;;;;5054460;28;20048;-73
2021/07/27 13:07:35;;;;;;;4.82;3.67;;;25.80;41.10;;;;;;5055004;28;20025;-72
2021/07/27 13:10:05;;;;;;;5.43;3.63;;;25.60;40.10;;;;;;5053872;28;20025;-72